Terminal Aerodrome Forecast
Issued by NWS Denver/Boulder, CO

Home | Current Version | Previous Version | Text Only | Print | Product List | Glossary On
Versions: 1 2 3 4 5 6 7 8 9 10 11 12 13 14 15 16 17 18 19 20 21 22 23 24 25 26 27 28 29 30 31 32 33 34
000
FTUS45 KBOU 271501 AAA
TAFDEN
TAF AMD
KDEN 271501Z 2715/2818 24007KT P6SM SKC
     FM271800 01006KT P6SM SKC
     FM272300 06008KT P6SM FEW250
     FM280300 15007KT P6SM FEW250
     FM280600 21008KT P6SM SKC=

USA.gov is the U.S. government's official web portal to all federal, state and local government web resources and services.